Amherst, OH (44001)

2:14 AM EST on November 23, 2014 (GMT -0500)
Vermilion Township | Change Station
CLOSE
Current Station
Personal Weather Station
Location: Vermilion, OH
Elevation: 689 ft
Nearby Weather Stations

Elev 689 ft 41.39 °N, 82.36 °W | Updated 2 minutes ago

Overcast
Overcast
52.2 °F
Feels Like 52.2 °F
N
6.3
Wind Variable Wind from SSW

Today
High -- | Low -- °F
--% Chance of Precip.
Yesterday
High -- | Low -- °F
Precip. -- in
7:26 AM 5:03 PM
New Moon, 1% visible
Pressure 30.03 in
Visibility 10.0 miles
Clouds Overcast 3900 ft
Dew Point 37 °F
Humidity 56%
Rainfall 0.00 in
Snow Depth Not available.
UV 0 out of 12
Pollen .10 out of 12
Air Quality Not available.
Flu Activity Not available.
METAR KLPR 230653Z AUTO 22008KT 10SM OVC039 10/02 A3002 RMK AO2 SLP169 T01000022 TSNO

More Conditions Fewer Conditions

Pressure 30.03 in
Visibility 10.0 miles
Clouds Overcast 3900 ft
Dew Point 37 °F
Humidity 56%
Rainfall 0.00 in
Snow Depth Not available.
UV 0 out of 12
Pollen .10 out of 12
Air Quality Not available.
Flu Activity Not available.
METAR KLPR 230653Z AUTO 22008KT 10SM OVC039 10/02 A3002 RMK AO2 SLP169 T01000022 TSNO

More Conditions Fewer Conditions

10-Day Weather Forecast

Almanac

Astronomy

Nov. 23, 2014 Rise Set
Actual Time
Civil Twilight
Nautical Twilight
Astronomical Twilight
Moon
Length of Visible Light
Length of Day
Tomorrow will be .
, % of the Moon is Illuminated

Today's Extremes

State Highs State Lows

Community

WunderPhotos

Upload Photos

1,773,024 photos uploaded!

WunderBlogs® & News

Nearby

Air Quality

  Air Quality AQ Index Pollutant
Not available.

Snow Depth

Station Depth Elevation

Earthquake Activity

City Distance Mag. Time & Date
Minimum magnitude displayed is 2.5.

Coastal Water Temperatures

Place Temperature

Nearby Weather Stations